Bobo Dioulasso Airport Bobo Dioulasso BF
ICAO: DFOO
IATA: BOY
Category: Medium
Scheduled Services: Yes

Elevation: 1511 ft
TransAlt. 4300 ft.

Airport Communications:
AG VOICE RDO:667.3
TWR:119.7

DFOO Zoom In..

Runways:

(A) RW 06 length 10827 ft width 148 ft
ILS 109.70 / hdg 57

(B) RW 24 length 10827 ft width 148 ft
---- / hdg 237

Location; DFOO
Day. 11 / Time. 09.00 Zulu
* QNH: 1013
* Temperature: 23° c. 73.4°f.
* Wind from: 200° Speed 09 kn.
Dewpoint: 23° c.
Visibility: 10 km or more.
Clouds: Broken 1000 ft.

DFOO 110900Z 20009KT 9999 BKN010 23/23 Q1013

Going to: --> -->


Wind From 200°
Speed 09 kn.

 
 
jpsmedia worldairports.se 2020   terms of use